sensor_id;sensor_type;location;lat;lon;timestamp;P1;durP1;ratioP1;P2;durP2;ratioP2
68757;SDS011;55747;51.998;4.466;2023-03-19T00:00:22;18.73;;;13.63;;
68757;SDS011;55747;51.998;4.466;2023-03-19T00:02:47;20.20;;;14.48;;
68757;SDS011;55747;51.998;4.466;2023-03-19T00:05:15;20.15;;;14.98;;
68757;SDS011;55747;51.998;4.466;2023-03-19T00:07:41;21.98;;;15.20;;
68757;SDS011;55747;51.998;4.466;2023-03-19T00:10:07;28.15;;;18.65;;
68757;SDS011;55747;51.998;4.466;2023-03-19T00:12:33;28.33;;;20.17;;
68757;SDS011;55747;51.998;4.466;2023-03-19T00:14:58;31.83;;;21.40;;
68757;SDS011;55747;51.998;4.466;2023-03-19T00:17:24;33.63;;;22.40;;
68757;SDS011;55747;51.998;4.466;2023-03-19T00:19:50;28.17;;;20.10;;
68757;SDS011;55747;51.998;4.466;2023-03-19T00:22:15;28.77;;;21.02;;
68757;SDS011;55747;51.998;4.466;2023-03-19T00:24:41;29.60;;;20.80;;
68757;SDS011;55747;51.998;4.466;2023-03-19T00:27:06;31.00;;;21.05;;
68757;SDS011;55747;51.998;4.466;2023-03-19T00:29:35;27.98;;;19.77;;
68757;SDS011;55747;51.998;4.466;2023-03-19T00:32:00;28.38;;;20.75;;
68757;SDS011;55747;51.998;4.466;2023-03-19T00:34:26;28.73;;;19.77;;
68757;SDS011;55747;51.998;4.466;2023-03-19T00:36:52;30.25;;;19.90;;
68757;SDS011;55747;51.998;4.466;2023-03-19T00:39:18;29.70;;;19.80;;
68757;SDS011;55747;51.998;4.466;2023-03-19T00:41:44;32.55;;;20.27;;
68757;SDS011;55747;51.998;4.466;2023-03-19T00:44:14;28.98;;;19.20;;
68757;SDS011;55747;51.998;4.466;2023-03-19T00:46:41;27.63;;;18.20;;
68757;SDS011;55747;51.998;4.466;2023-03-19T00:49:06;28.53;;;18.97;;
68757;SDS011;55747;51.998;4.466;2023-03-19T00:51:31;29.70;;;19.15;;
68757;SDS011;55747;51.998;4.466;2023-03-19T00:53:57;30.42;;;18.55;;
68757;SDS011;55747;51.998;4.466;2023-03-19T00:56:22;28.33;;;19.40;;
68757;SDS011;55747;51.998;4.466;2023-03-19T00:58:47;30.63;;;18.88;;
68757;SDS011;55747;51.998;4.466;2023-03-19T01:01:13;35.03;;;18.98;;
68757;SDS011;55747;51.998;4.466;2023-03-19T01:03:40;31.20;;;18.25;;
68757;SDS011;55747;51.998;4.466;2023-03-19T01:06:06;29.90;;;17.70;;
68757;SDS011;55747;51.998;4.466;2023-03-19T01:08:32;29.77;;;18.05;;
68757;SDS011;55747;51.998;4.466;2023-03-19T01:11:07;34.25;;;18.80;;
68757;SDS011;55747;51.998;4.466;2023-03-19T01:13:35;29.70;;;17.70;;
68757;SDS011;55747;51.998;4.466;2023-03-19T01:16:02;32.10;;;17.73;;
68757;SDS011;55747;51.998;4.466;2023-03-19T01:18:28;32.58;;;17.52;;
68757;SDS011;55747;51.998;4.466;2023-03-19T01:20:53;30.98;;;17.20;;
68757;SDS011;55747;51.998;4.466;2023-03-19T01:23:19;34.28;;;18.90;;
68757;SDS011;55747;51.998;4.466;2023-03-19T01:25:44;35.42;;;18.40;;
68757;SDS011;55747;51.998;4.466;2023-03-19T01:28:10;31.55;;;17.52;;
68757;SDS011;55747;51.998;4.466;2023-03-19T01:30:35;38.65;;;17.60;;
68757;SDS011;55747;51.998;4.466;2023-03-19T01:33:01;38.07;;;18.63;;
68757;SDS011;55747;51.998;4.466;2023-03-19T01:35:26;41.13;;;18.57;;
68757;SDS011;55747;51.998;4.466;2023-03-19T01:37:51;39.08;;;18.38;;
68757;SDS011;55747;51.998;4.466;2023-03-19T01:40:17;43.80;;;19.83;;
68757;SDS011;55747;51.998;4.466;2023-03-19T01:42:55;43.20;;;18.77;;
68757;SDS011;55747;51.998;4.466;2023-03-19T01:45:37;48.72;;;19.20;;
68757;SDS011;55747;51.998;4.466;2023-03-19T01:48:04;42.35;;;18.90;;
68757;SDS011;55747;51.998;4.466;2023-03-19T01:50:36;45.97;;;19.98;;
68757;SDS011;55747;51.998;4.466;2023-03-19T01:53:06;47.33;;;19.60;;
68757;SDS011;55747;51.998;4.466;2023-03-19T01:55:35;42.85;;;19.58;;
68757;SDS011;55747;51.998;4.466;2023-03-19T01:58:00;46.28;;;18.50;;
68757;SDS011;55747;51.998;4.466;2023-03-19T02:00:27;42.20;;;18.23;;
68757;SDS011;55747;51.998;4.466;2023-03-19T02:02:56;44.10;;;18.45;;
68757;SDS011;55747;51.998;4.466;2023-03-19T02:05:24;38.90;;;18.27;;
68757;SDS011;55747;51.998;4.466;2023-03-19T02:07:52;40.80;;;18.50;;
68757;SDS011;55747;51.998;4.466;2023-03-19T02:10:20;40.35;;;18.15;;
68757;SDS011;55747;51.998;4.466;2023-03-19T02:12:47;37.33;;;17.77;;
68757;SDS011;55747;51.998;4.466;2023-03-19T02:15:13;41.88;;;17.50;;
68757;SDS011;55747;51.998;4.466;2023-03-19T02:17:40;40.10;;;17.90;;
68757;SDS011;55747;51.998;4.466;2023-03-19T02:22:47;38.75;;;17.35;;
68757;SDS011;55747;51.998;4.466;2023-03-19T02:28:10;38.40;;;18.17;;
68757;SDS011;55747;51.998;4.466;2023-03-19T02:30:38;39.63;;;18.05;;
68757;SDS011;55747;51.998;4.466;2023-03-19T02:33:05;42.05;;;18.60;;
68757;SDS011;55747;51.998;4.466;2023-03-19T02:35:32;39.65;;;17.08;;
68757;SDS011;55747;51.998;4.466;2023-03-19T02:38:00;40.20;;;17.70;;
68757;SDS011;55747;51.998;4.466;2023-03-19T02:40:29;44.20;;;18.50;;
68757;SDS011;55747;51.998;4.466;2023-03-19T02:42:58;44.78;;;20.02;;
68757;SDS011;55747;51.998;4.466;2023-03-19T02:45:27;47.40;;;19.40;;
68757;SDS011;55747;51.998;4.466;2023-03-19T02:47:53;44.03;;;19.52;;
68757;SDS011;55747;51.998;4.466;2023-03-19T02:50:19;42.80;;;18.98;;
68757;SDS011;55747;51.998;4.466;2023-03-19T02:52:44;49.75;;;18.77;;
68757;SDS011;55747;51.998;4.466;2023-03-19T02:55:10;39.67;;;17.55;;
68757;SDS011;55747;51.998;4.466;2023-03-19T02:57:35;36.40;;;16.65;;
68757;SDS011;55747;51.998;4.466;2023-03-19T03:00:01;34.85;;;16.23;;
68757;SDS011;55747;51.998;4.466;2023-03-19T03:02:31;36.63;;;17.02;;
68757;SDS011;55747;51.998;4.466;2023-03-19T03:04:56;36.17;;;18.08;;
68757;SDS011;55747;51.998;4.466;2023-03-19T03:07:22;42.88;;;19.63;;
68757;SDS011;55747;51.998;4.466;2023-03-19T03:09:47;36.38;;;19.00;;
68757;SDS011;55747;51.998;4.466;2023-03-19T03:12:12;36.03;;;19.25;;
68757;SDS011;55747;51.998;4.466;2023-03-19T03:14:38;43.17;;;20.80;;
68757;SDS011;55747;51.998;4.466;2023-03-19T03:17:04;47.78;;;24.15;;
68757;SDS011;55747;51.998;4.466;2023-03-19T03:19:30;48.58;;;23.50;;
68757;SDS011;55747;51.998;4.466;2023-03-19T03:21:55;57.13;;;28.58;;
68757;SDS011;55747;51.998;4.466;2023-03-19T03:24:20;57.40;;;28.17;;
68757;SDS011;55747;51.998;4.466;2023-03-19T03:26:46;55.90;;;29.60;;
68757;SDS011;55747;51.998;4.466;2023-03-19T03:29:11;51.43;;;27.77;;
68757;SDS011;55747;51.998;4.466;2023-03-19T03:31:36;50.08;;;28.20;;
68757;SDS011;55747;51.998;4.466;2023-03-19T03:34:02;50.92;;;28.73;;
68757;SDS011;55747;51.998;4.466;2023-03-19T03:36:27;57.67;;;30.27;;
68757;SDS011;55747;51.998;4.466;2023-03-19T03:38:56;52.35;;;29.30;;
68757;SDS011;55747;51.998;4.466;2023-03-19T03:41:21;59.45;;;31.10;;
68757;SDS011;55747;51.998;4.466;2023-03-19T03:43:46;59.03;;;30.85;;
68757;SDS011;55747;51.998;4.466;2023-03-19T03:46:12;59.20;;;31.05;;
68757;SDS011;55747;51.998;4.466;2023-03-19T03:48:37;57.42;;;30.98;;
68757;SDS011;55747;51.998;4.466;2023-03-19T03:51:03;61.78;;;32.30;;
68757;SDS011;55747;51.998;4.466;2023-03-19T03:53:28;63.45;;;31.98;;
68757;SDS011;55747;51.998;4.466;2023-03-19T03:55:54;62.58;;;33.10;;
68757;SDS011;55747;51.998;4.466;2023-03-19T03:58:22;65.70;;;33.92;;
68757;SDS011;55747;51.998;4.466;2023-03-19T04:00:48;64.75;;;33.40;;
68757;SDS011;55747;51.998;4.466;2023-03-19T04:03:13;68.25;;;34.05;;
68757;SDS011;55747;51.998;4.466;2023-03-19T04:05:38;70.68;;;35.17;;
68757;SDS011;55747;51.998;4.466;2023-03-19T04:08:04;73.22;;;35.53;;
68757;SDS011;55747;51.998;4.466;2023-03-19T04:10:31;72.20;;;36.03;;
68757;SDS011;55747;51.998;4.466;2023-03-19T04:12:57;72.53;;;36.70;;
68757;SDS011;55747;51.998;4.466;2023-03-19T04:15:23;76.20;;;38.17;;
68757;SDS011;55747;51.998;4.466;2023-03-19T04:17:49;75.75;;;36.88;;
68757;SDS011;55747;51.998;4.466;2023-03-19T04:20:14;74.47;;;36.38;;
68757;SDS011;55747;51.998;4.466;2023-03-19T04:22:42;78.68;;;37.15;;
68757;SDS011;55747;51.998;4.466;2023-03-19T04:25:10;75.97;;;36.80;;
68757;SDS011;55747;51.998;4.466;2023-03-19T04:27:36;74.93;;;32.80;;
68757;SDS011;55747;51.998;4.466;2023-03-19T04:30:04;73.70;;;31.67;;
68757;SDS011;55747;51.998;4.466;2023-03-19T04:32:30;79.82;;;32.80;;
68757;SDS011;55747;51.998;4.466;2023-03-19T04:34:55;85.60;;;34.13;;
68757;SDS011;55747;51.998;4.466;2023-03-19T04:37:22;88.70;;;34.42;;
68757;SDS011;55747;51.998;4.466;2023-03-19T04:39:47;87.63;;;33.88;;
68757;SDS011;55747;51.998;4.466;2023-03-19T04:42:13;89.05;;;34.17;;
68757;SDS011;55747;51.998;4.466;2023-03-19T04:44:39;93.15;;;33.90;;
68757;SDS011;55747;51.998;4.466;2023-03-19T04:47:04;78.22;;;28.60;;
68757;SDS011;55747;51.998;4.466;2023-03-19T04:49:30;78.13;;;27.02;;
68757;SDS011;55747;51.998;4.466;2023-03-19T04:51:58;76.75;;;26.95;;
68757;SDS011;55747;51.998;4.466;2023-03-19T04:54:23;75.20;;;25.83;;
68757;SDS011;55747;51.998;4.466;2023-03-19T04:56:49;82.50;;;27.48;;
68757;SDS011;55747;51.998;4.466;2023-03-19T04:59:15;81.82;;;27.50;;
68757;SDS011;55747;51.998;4.466;2023-03-19T05:01:41;87.57;;;28.08;;
68757;SDS011;55747;51.998;4.466;2023-03-19T05:04:07;81.70;;;27.63;;
68757;SDS011;55747;51.998;4.466;2023-03-19T05:06:32;92.10;;;28.98;;
68757;SDS011;55747;51.998;4.466;2023-03-19T05:08:58;96.43;;;29.13;;
68757;SDS011;55747;51.998;4.466;2023-03-19T05:11:23;88.57;;;28.20;;
68757;SDS011;55747;51.998;4.466;2023-03-19T05:13:49;91.50;;;28.83;;
68757;SDS011;55747;51.998;4.466;2023-03-19T05:16:14;87.10;;;28.55;;
68757;SDS011;55747;51.998;4.466;2023-03-19T05:18:39;86.30;;;27.25;;
68757;SDS011;55747;51.998;4.466;2023-03-19T05:21:05;102.93;;;31.17;;
68757;SDS011;55747;51.998;4.466;2023-03-19T05:23:30;96.47;;;29.83;;
68757;SDS011;55747;51.998;4.466;2023-03-19T05:26:02;101.15;;;30.92;;
68757;SDS011;55747;51.998;4.466;2023-03-19T05:28:28;103.40;;;33.10;;
68757;SDS011;55747;51.998;4.466;2023-03-19T05:30:53;107.03;;;32.20;;
68757;SDS011;55747;51.998;4.466;2023-03-19T05:33:19;104.75;;;30.30;;
68757;SDS011;55747;51.998;4.466;2023-03-19T05:35:46;119.05;;;32.60;;
68757;SDS011;55747;51.998;4.466;2023-03-19T05:38:11;118.47;;;30.17;;
68757;SDS011;55747;51.998;4.466;2023-03-19T05:40:37;114.50;;;28.88;;
68757;SDS011;55747;51.998;4.466;2023-03-19T05:43:02;103.93;;;26.23;;
68757;SDS011;55747;51.998;4.466;2023-03-19T05:45:27;100.75;;;25.80;;
68757;SDS011;55747;51.998;4.466;2023-03-19T05:47:56;102.88;;;26.73;;
68757;SDS011;55747;51.998;4.466;2023-03-19T05:50:21;108.00;;;25.37;;
68757;SDS011;55747;51.998;4.466;2023-03-19T05:52:46;103.63;;;26.15;;
68757;SDS011;55747;51.998;4.466;2023-03-19T05:55:12;123.82;;;28.08;;
68757;SDS011;55747;51.998;4.466;2023-03-19T05:57:37;119.22;;;27.42;;
68757;SDS011;55747;51.998;4.466;2023-03-19T06:00:03;114.72;;;27.45;;
68757;SDS011;55747;51.998;4.466;2023-03-19T06:02:30;129.50;;;28.95;;
68757;SDS011;55747;51.998;4.466;2023-03-19T06:04:55;125.75;;;29.23;;
68757;SDS011;55747;51.998;4.466;2023-03-19T06:07:21;141.93;;;28.13;;
68757;SDS011;55747;51.998;4.466;2023-03-19T06:09:46;134.43;;;29.67;;
68757;SDS011;55747;51.998;4.466;2023-03-19T06:12:12;131.13;;;30.10;;
68757;SDS011;55747;51.998;4.466;2023-03-19T06:14:37;146.65;;;32.85;;
68757;SDS011;55747;51.998;4.466;2023-03-19T06:17:02;152.40;;;32.83;;
68757;SDS011;55747;51.998;4.466;2023-03-19T06:19:30;140.40;;;30.17;;
68757;SDS011;55747;51.998;4.466;2023-03-19T06:21:55;144.27;;;31.45;;
68757;SDS011;55747;51.998;4.466;2023-03-19T06:24:21;157.23;;;31.57;;
68757;SDS011;55747;51.998;4.466;2023-03-19T06:26:46;143.48;;;30.33;;
68757;SDS011;55747;51.998;4.466;2023-03-19T06:29:11;150.85;;;30.60;;
68757;SDS011;55747;51.998;4.466;2023-03-19T06:31:37;133.48;;;29.35;;
68757;SDS011;55747;51.998;4.466;2023-03-19T06:34:05;132.30;;;29.05;;
68757;SDS011;55747;51.998;4.466;2023-03-19T06:36:31;138.68;;;29.73;;
68757;SDS011;55747;51.998;4.466;2023-03-19T06:38:56;140.25;;;30.63;;
68757;SDS011;55747;51.998;4.466;2023-03-19T06:41:21;141.30;;;29.30;;
68757;SDS011;55747;51.998;4.466;2023-03-19T06:43:48;136.77;;;29.55;;
68757;SDS011;55747;51.998;4.466;2023-03-19T06:46:14;133.43;;;32.20;;
68757;SDS011;55747;51.998;4.466;2023-03-19T06:48:39;115.35;;;29.70;;
68757;SDS011;55747;51.998;4.466;2023-03-19T06:51:04;128.35;;;29.48;;
68757;SDS011;55747;51.998;4.466;2023-03-19T06:53:30;131.30;;;30.02;;
68757;SDS011;55747;51.998;4.466;2023-03-19T06:55:56;126.65;;;29.83;;
68757;SDS011;55747;51.998;4.466;2023-03-19T06:58:21;132.32;;;30.20;;
68757;SDS011;55747;51.998;4.466;2023-03-19T07:00:46;137.45;;;31.60;;
68757;SDS011;55747;51.998;4.466;2023-03-19T07:03:12;123.03;;;29.27;;
68757;SDS011;55747;51.998;4.466;2023-03-19T07:05:37;121.43;;;29.67;;
68757;SDS011;55747;51.998;4.466;2023-03-19T07:08:05;114.88;;;30.05;;
68757;SDS011;55747;51.998;4.466;2023-03-19T07:10:36;104.78;;;27.63;;
68757;SDS011;55747;51.998;4.466;2023-03-19T07:13:03;107.68;;;28.83;;
68757;SDS011;55747;51.998;4.466;2023-03-19T07:15:29;108.07;;;29.20;;
68757;SDS011;55747;51.998;4.466;2023-03-19T07:17:54;102.35;;;29.17;;
68757;SDS011;55747;51.998;4.466;2023-03-19T07:20:25;102.07;;;28.60;;
68757;SDS011;55747;51.998;4.466;2023-03-19T07:22:51;88.10;;;26.00;;
68757;SDS011;55747;51.998;4.466;2023-03-19T07:25:16;78.85;;;24.73;;
68757;SDS011;55747;51.998;4.466;2023-03-19T07:27:42;89.70;;;26.05;;
68757;SDS011;55747;51.998;4.466;2023-03-19T07:30:08;94.97;;;27.33;;
68757;SDS011;55747;51.998;4.466;2023-03-19T07:32:34;91.35;;;28.42;;
68757;SDS011;55747;51.998;4.466;2023-03-19T07:35:00;100.65;;;30.35;;
68757;SDS011;55747;51.998;4.466;2023-03-19T07:37:25;106.55;;;31.50;;
68757;SDS011;55747;51.998;4.466;2023-03-19T07:39:51;107.82;;;31.75;;
68757;SDS011;55747;51.998;4.466;2023-03-19T07:42:16;103.90;;;29.13;;
68757;SDS011;55747;51.998;4.466;2023-03-19T07:44:41;105.07;;;30.05;;
68757;SDS011;55747;51.998;4.466;2023-03-19T07:47:07;115.30;;;31.90;;
68757;SDS011;55747;51.998;4.466;2023-03-19T07:49:32;114.50;;;32.60;;
68757;SDS011;55747;51.998;4.466;2023-03-19T07:51:57;102.53;;;31.20;;
68757;SDS011;55747;51.998;4.466;2023-03-19T07:54:23;117.18;;;34.00;;
68757;SDS011;55747;51.998;4.466;2023-03-19T07:56:48;106.85;;;32.30;;
68757;SDS011;55747;51.998;4.466;2023-03-19T07:59:14;104.43;;;31.60;;
68757;SDS011;55747;51.998;4.466;2023-03-19T08:01:39;98.93;;;31.63;;
68757;SDS011;55747;51.998;4.466;2023-03-19T08:04:05;97.25;;;30.75;;
68757;SDS011;55747;51.998;4.466;2023-03-19T08:06:30;100.07;;;31.88;;
68757;SDS011;55747;51.998;4.466;2023-03-19T08:08:56;100.45;;;30.08;;
68757;SDS011;55747;51.998;4.466;2023-03-19T08:11:21;96.33;;;29.70;;
68757;SDS011;55747;51.998;4.466;2023-03-19T08:13:47;97.90;;;30.42;;
68757;SDS011;55747;51.998;4.466;2023-03-19T08:16:12;99.70;;;29.30;;
68757;SDS011;55747;51.998;4.466;2023-03-19T08:18:38;106.65;;;31.58;;
68757;SDS011;55747;51.998;4.466;2023-03-19T08:21:03;116.85;;;31.23;;
68757;SDS011;55747;51.998;4.466;2023-03-19T08:23:28;108.25;;;31.02;;
68757;SDS011;55747;51.998;4.466;2023-03-19T08:25:54;106.63;;;29.13;;
68757;SDS011;55747;51.998;4.466;2023-03-19T08:28:21;111.15;;;30.48;;
68757;SDS011;55747;51.998;4.466;2023-03-19T08:30:46;111.50;;;29.08;;
68757;SDS011;55747;51.998;4.466;2023-03-19T08:33:12;99.72;;;27.55;;
68757;SDS011;55747;51.998;4.466;2023-03-19T08:35:38;97.25;;;27.88;;
68757;SDS011;55747;51.998;4.466;2023-03-19T08:38:03;99.75;;;27.33;;
68757;SDS011;55747;51.998;4.466;2023-03-19T08:40:29;100.20;;;27.77;;
68757;SDS011;55747;51.998;4.466;2023-03-19T08:42:55;94.35;;;28.20;;
68757;SDS011;55747;51.998;4.466;2023-03-19T08:45:21;91.53;;;27.50;;
68757;SDS011;55747;51.998;4.466;2023-03-19T08:47:47;94.97;;;27.52;;
68757;SDS011;55747;51.998;4.466;2023-03-19T08:50:13;95.53;;;29.05;;
68757;SDS011;55747;51.998;4.466;2023-03-19T08:52:39;88.22;;;25.77;;
68757;SDS011;55747;51.998;4.466;2023-03-19T08:55:05;86.57;;;27.48;;
68757;SDS011;55747;51.998;4.466;2023-03-19T08:57:31;85.88;;;26.15;;
68757;SDS011;55747;51.998;4.466;2023-03-19T08:59:57;83.25;;;26.77;;
68757;SDS011;55747;51.998;4.466;2023-03-19T09:02:22;81.00;;;25.80;;
68757;SDS011;55747;51.998;4.466;2023-03-19T09:04:48;74.22;;;25.30;;
68757;SDS011;55747;51.998;4.466;2023-03-19T09:07:13;84.20;;;26.65;;
68757;SDS011;55747;51.998;4.466;2023-03-19T09:09:44;81.95;;;24.92;;
68757;SDS011;55747;51.998;4.466;2023-03-19T09:12:11;83.63;;;26.35;;
68757;SDS011;55747;51.998;4.466;2023-03-19T09:14:38;69.05;;;23.40;;
68757;SDS011;55747;51.998;4.466;2023-03-19T09:17:04;63.40;;;21.30;;
68757;SDS011;55747;51.998;4.466;2023-03-19T09:19:30;74.68;;;23.83;;
68757;SDS011;55747;51.998;4.466;2023-03-19T09:21:55;48.13;;;18.58;;
68757;SDS011;55747;51.998;4.466;2023-03-19T09:24:20;50.70;;;19.80;;
68757;SDS011;55747;51.998;4.466;2023-03-19T09:26:46;52.25;;;19.50;;
68757;SDS011;55747;51.998;4.466;2023-03-19T09:29:12;51.40;;;19.80;;
68757;SDS011;55747;51.998;4.466;2023-03-19T09:31:37;51.42;;;19.38;;
68757;SDS011;55747;51.998;4.466;2023-03-19T09:34:03;54.60;;;19.70;;
68757;SDS011;55747;51.998;4.466;2023-03-19T09:36:28;47.60;;;19.38;;
68757;SDS011;55747;51.998;4.466;2023-03-19T09:38:56;55.03;;;20.23;;
68757;SDS011;55747;51.998;4.466;2023-03-19T09:41:38;53.83;;;20.42;;
68757;SDS011;55747;51.998;4.466;2023-03-19T09:44:12;55.40;;;18.73;;
68757;SDS011;55747;51.998;4.466;2023-03-19T09:46:50;55.70;;;19.63;;
68757;SDS011;55747;51.998;4.466;2023-03-19T09:49:24;56.88;;;19.83;;
68757;SDS011;55747;51.998;4.466;2023-03-19T09:51:53;61.03;;;21.00;;
68757;SDS011;55747;51.998;4.466;2023-03-19T09:54:44;69.35;;;22.40;;
68757;SDS011;55747;51.998;4.466;2023-03-19T09:57:14;65.20;;;20.85;;
68757;SDS011;55747;51.998;4.466;2023-03-19T09:59:41;55.03;;;19.33;;
68757;SDS011;55747;51.998;4.466;2023-03-19T10:05:00;49.47;;;18.58;;
68757;SDS011;55747;51.998;4.466;2023-03-19T10:07:47;45.28;;;17.42;;
68757;SDS011;55747;51.998;4.466;2023-03-19T10:15:53;51.15;;;18.90;;
68757;SDS011;55747;51.998;4.466;2023-03-19T10:18:20;58.53;;;21.85;;
68757;SDS011;55747;51.998;4.466;2023-03-19T10:23:38;52.60;;;20.23;;
68757;SDS011;55747;51.998;4.466;2023-03-19T10:26:10;51.08;;;20.67;;
68757;SDS011;55747;51.998;4.466;2023-03-19T10:28:40;51.63;;;21.13;;
68757;SDS011;55747;51.998;4.466;2023-03-19T10:31:27;50.45;;;20.92;;
68757;SDS011;55747;51.998;4.466;2023-03-19T10:34:02;45.25;;;21.10;;
68757;SDS011;55747;51.998;4.466;2023-03-19T10:36:36;50.00;;;20.75;;
68757;SDS011;55747;51.998;4.466;2023-03-19T10:39:02;49.92;;;19.52;;
68757;SDS011;55747;51.998;4.466;2023-03-19T10:41:37;45.72;;;19.80;;
68757;SDS011;55747;51.998;4.466;2023-03-19T10:44:13;48.22;;;19.90;;
68757;SDS011;55747;51.998;4.466;2023-03-19T10:46:49;49.17;;;19.73;;
68757;SDS011;55747;51.998;4.466;2023-03-19T10:49:14;51.30;;;22.00;;
68757;SDS011;55747;51.998;4.466;2023-03-19T10:51:46;44.17;;;19.52;;
68757;SDS011;55747;51.998;4.466;2023-03-19T10:54:20;47.50;;;19.88;;
68757;SDS011;55747;51.998;4.466;2023-03-19T10:56:46;40.83;;;18.10;;
68757;SDS011;55747;51.998;4.466;2023-03-19T10:59:23;32.75;;;16.50;;
68757;SDS011;55747;51.998;4.466;2023-03-19T11:02:18;37.95;;;17.73;;
68757;SDS011;55747;51.998;4.466;2023-03-19T11:04:44;35.28;;;17.90;;
68757;SDS011;55747;51.998;4.466;2023-03-19T11:07:16;38.50;;;17.30;;
68757;SDS011;55747;51.998;4.466;2023-03-19T11:09:45;35.65;;;16.98;;
68757;SDS011;55747;51.998;4.466;2023-03-19T11:14:43;35.63;;;17.33;;
68757;SDS011;55747;51.998;4.466;2023-03-19T11:19:51;37.25;;;16.38;;
68757;SDS011;55747;51.998;4.466;2023-03-19T11:22:31;37.15;;;16.85;;
68757;SDS011;55747;51.998;4.466;2023-03-19T11:25:00;34.15;;;16.98;;
68757;SDS011;55747;51.998;4.466;2023-03-19T11:27:39;39.03;;;18.15;;
68757;SDS011;55747;51.998;4.466;2023-03-19T11:30:17;36.70;;;17.77;;
68757;SDS011;55747;51.998;4.466;2023-03-19T11:49:15;37.80;;;19.08;;
68757;SDS011;55747;51.998;4.466;2023-03-19T11:51:45;36.70;;;20.10;;
68757;SDS011;55747;51.998;4.466;2023-03-19T11:54:23;34.47;;;20.20;;
68757;SDS011;55747;51.998;4.466;2023-03-19T11:56:59;39.20;;;21.20;;
68757;SDS011;55747;51.998;4.466;2023-03-19T11:59:31;46.63;;;21.98;;
68757;SDS011;55747;51.998;4.466;2023-03-19T12:05:02;46.72;;;22.23;;
68757;SDS011;55747;51.998;4.466;2023-03-19T12:10:58;48.45;;;23.45;;
68757;SDS011;55747;51.998;4.466;2023-03-19T12:16:39;45.10;;;22.95;;
68757;SDS011;55747;51.998;4.466;2023-03-19T12:27:21;40.17;;;21.38;;
68757;SDS011;55747;51.998;4.466;2023-03-19T12:35:23;41.55;;;20.17;;
68757;SDS011;55747;51.998;4.466;2023-03-19T12:43:52;39.95;;;19.63;;
68757;SDS011;55747;51.998;4.466;2023-03-19T12:46:30;37.03;;;19.52;;
68757;SDS011;55747;51.998;4.466;2023-03-19T12:49:13;37.92;;;18.33;;
68757;SDS011;55747;51.998;4.466;2023-03-19T12:51:44;40.45;;;18.33;;
68757;SDS011;55747;51.998;4.466;2023-03-19T12:54:17;33.45;;;18.48;;
68757;SDS011;55747;51.998;4.466;2023-03-19T12:57:00;34.65;;;17.38;;
68757;SDS011;55747;51.998;4.466;2023-03-19T13:02:37;23.70;;;13.63;;
68757;SDS011;55747;51.998;4.466;2023-03-19T13:10:26;18.55;;;10.73;;
68757;SDS011;55747;51.998;4.466;2023-03-19T13:12:54;19.88;;;11.23;;
68757;SDS011;55747;51.998;4.466;2023-03-19T13:15:32;18.15;;;10.57;;
68757;SDS011;55747;51.998;4.466;2023-03-19T13:23:29;22.45;;;12.05;;
68757;SDS011;55747;51.998;4.466;2023-03-19T13:25:57;20.27;;;12.38;;
68757;SDS011;55747;51.998;4.466;2023-03-19T13:28:28;23.83;;;12.88;;
68757;SDS011;55747;51.998;4.466;2023-03-19T13:30:57;23.30;;;12.90;;
68757;SDS011;55747;51.998;4.466;2023-03-19T13:33:23;22.60;;;12.38;;
68757;SDS011;55747;51.998;4.466;2023-03-19T13:35:51;21.83;;;11.68;;
68757;SDS011;55747;51.998;4.466;2023-03-19T13:38:33;25.33;;;12.52;;
68757;SDS011;55747;51.998;4.466;2023-03-19T13:41:04;27.95;;;12.43;;
68757;SDS011;55747;51.998;4.466;2023-03-19T13:51:43;20.65;;;11.35;;
68757;SDS011;55747;51.998;4.466;2023-03-19T13:57:20;23.90;;;12.68;;
68757;SDS011;55747;51.998;4.466;2023-03-19T13:59:32;21.15;;;12.18;;
68757;SDS011;55747;51.998;4.466;2023-03-19T14:04:59;22.45;;;11.90;;
68757;SDS011;55747;51.998;4.466;2023-03-19T14:07:32;27.35;;;13.98;;
68757;SDS011;55747;51.998;4.466;2023-03-19T14:10:06;33.58;;;14.13;;
68757;SDS011;55747;51.998;4.466;2023-03-19T14:12:41;29.85;;;14.00;;
68757;SDS011;55747;51.998;4.466;2023-03-19T14:22:37;33.58;;;14.07;;
68757;SDS011;55747;51.998;4.466;2023-03-19T14:27:45;33.53;;;15.40;;
68757;SDS011;55747;51.998;4.466;2023-03-19T14:30:25;35.65;;;14.25;;
68757;SDS011;55747;51.998;4.466;2023-03-19T14:32:58;19.63;;;11.30;;
68757;SDS011;55747;51.998;4.466;2023-03-19T14:35:27;22.08;;;12.13;;
68757;SDS011;55747;51.998;4.466;2023-03-19T14:37:56;22.33;;;12.40;;
68757;SDS011;55747;51.998;4.466;2023-03-19T14:40:25;20.15;;;13.02;;
68757;SDS011;55747;51.998;4.466;2023-03-19T14:45:58;20.48;;;11.70;;
68757;SDS011;55747;51.998;4.466;2023-03-19T14:57:17;21.15;;;12.20;;
68757;SDS011;55747;51.998;4.466;2023-03-19T14:59:44;22.15;;;13.23;;
68757;SDS011;55747;51.998;4.466;2023-03-19T15:02:52;21.42;;;12.10;;
68757;SDS011;55747;51.998;4.466;2023-03-19T15:05:03;20.13;;;11.38;;
68757;SDS011;55747;51.998;4.466;2023-03-19T15:07:33;16.25;;;11.55;;
68757;SDS011;55747;51.998;4.466;2023-03-19T15:10:06;17.80;;;11.05;;
68757;SDS011;55747;51.998;4.466;2023-03-19T15:15:51;18.83;;;12.00;;
68757;SDS011;55747;51.998;4.466;2023-03-19T15:18:39;18.52;;;11.40;;
68757;SDS011;55747;51.998;4.466;2023-03-19T15:21:04;17.25;;;9.98;;
68757;SDS011;55747;51.998;4.466;2023-03-19T15:23:30;17.20;;;10.15;;
68757;SDS011;55747;51.998;4.466;2023-03-19T15:26:00;18.80;;;10.45;;
68757;SDS011;55747;51.998;4.466;2023-03-19T15:28:31;19.13;;;10.32;;
68757;SDS011;55747;51.998;4.466;2023-03-19T15:33:31;17.02;;;9.43;;
68757;SDS011;55747;51.998;4.466;2023-03-19T15:35:59;19.88;;;11.02;;
68757;SDS011;55747;51.998;4.466;2023-03-19T15:38:34;22.95;;;12.13;;
68757;SDS011;55747;51.998;4.466;2023-03-19T15:41:04;20.90;;;11.32;;
68757;SDS011;55747;51.998;4.466;2023-03-19T15:43:32;18.88;;;10.68;;
68757;SDS011;55747;51.998;4.466;2023-03-19T15:46:00;21.25;;;10.25;;
68757;SDS011;55747;51.998;4.466;2023-03-19T15:48:27;18.92;;;9.73;;
68757;SDS011;55747;51.998;4.466;2023-03-19T15:51:02;20.48;;;10.15;;
68757;SDS011;55747;51.998;4.466;2023-03-19T15:53:31;17.42;;;10.38;;
68757;SDS011;55747;51.998;4.466;2023-03-19T15:55:59;18.60;;;10.13;;
68757;SDS011;55747;51.998;4.466;2023-03-19T15:58:27;18.77;;;10.38;;
68757;SDS011;55747;51.998;4.466;2023-03-19T16:00:56;22.48;;;12.70;;
68757;SDS011;55747;51.998;4.466;2023-03-19T16:03:25;23.27;;;11.77;;
68757;SDS011;55747;51.998;4.466;2023-03-19T16:05:59;21.55;;;12.13;;
68757;SDS011;55747;51.998;4.466;2023-03-19T16:08:27;26.50;;;12.50;;
68757;SDS011;55747;51.998;4.466;2023-03-19T16:10:53;25.77;;;12.23;;
68757;SDS011;55747;51.998;4.466;2023-03-19T16:13:20;22.27;;;12.57;;
68757;SDS011;55747;51.998;4.466;2023-03-19T16:18:47;26.77;;;13.35;;
68757;SDS011;55747;51.998;4.466;2023-03-19T16:31:43;35.78;;;13.85;;
68757;SDS011;55747;51.998;4.466;2023-03-19T16:34:28;32.45;;;13.85;;
68757;SDS011;55747;51.998;4.466;2023-03-19T16:36:53;29.95;;;13.65;;
68757;SDS011;55747;51.998;4.466;2023-03-19T16:41:44;31.70;;;12.93;;